Time;durP1;ratioP1;P1;durP2;ratioP2;P2;SDS_P1;SDS_P2;PMS_P1;PMS_P2;Temp;Humidity;BMP_temperature;BMP_pressure;BME280_temperature;BME280_humidity;BME280_pressure;Samples;Min_cycle;Max_cycle;Signal;HPM_P1;HPM_P2
2023/03/21 00:00:16;;;;;;;;;;;19.00;46.90;;;;;;5097880;28;19955;-68
2023/03/21 00:02:42;;;;;;;;;;;19.00;46.90;;;;;;5097749;28;19924;-67
2023/03/21 00:05:08;;;;;;;;;;;19.00;46.90;;;;;;5132117;27;19920;-68
2023/03/21 00:07:33;;;;;;;;;;;18.90;47.00;;;;;;5131561;27;20299;-66
2023/03/21 00:09:59;;;;;;;;;;;18.90;46.90;;;;;;5097760;28;19920;-67
2023/03/21 00:12:31;;;;;;;;;;;18.90;47.00;;;;;;5097942;28;19920;-69
2023/03/21 00:15:04;;;;;;;;;;;19.00;47.10;;;;;;5097384;28;19924;-68
2023/03/21 00:17:31;;;;;;;;;;;18.90;47.00;;;;;;5115523;28;19980;-68
2023/03/21 00:19:57;;;;;;;;;;;18.80;47.00;;;;;;5131744;27;19919;-68
2023/03/21 00:22:23;;;;;;;;;;;18.90;47.10;;;;;;5097230;28;19963;-68
2023/03/21 00:24:50;;;;;;;;;;;18.80;47.10;;;;;;5115577;28;19928;-67
2023/03/21 00:27:18;;;;;;;;;;;18.80;47.10;;;;;;5096960;28;19920;-68
2023/03/21 00:29:44;;;;;;;;;;;18.80;47.20;;;;;;5097605;28;19923;-68
2023/03/21 00:32:10;;;;;;;;;;;18.80;47.20;;;;;;5097079;28;20268;-67
2023/03/21 00:34:37;;;;;;;;;;;18.80;47.20;;;;;;5115233;28;19924;-68
2023/03/21 00:37:04;;;;;;;;;;;18.80;47.20;;;;;;5097271;28;19919;-68
2023/03/21 00:39:30;;;;;;;;;;;18.80;47.40;;;;;;5096847;28;19967;-67
2023/03/21 00:41:56;;;;;;;;;;;18.80;47.40;;;;;;5097163;28;19928;-68
2023/03/21 00:44:22;;;;;;;;;;;18.70;47.40;;;;;;5131262;27;20012;-68
2023/03/21 00:46:48;;;;;;;;;;;18.70;47.40;;;;;;5097099;28;19919;-68
2023/03/21 00:49:13;;;;;;;;;;;18.70;47.40;;;;;;5114918;28;19942;-67
2023/03/21 00:51:39;;;;;;;;;;;18.70;47.50;;;;;;5096995;28;19996;-68
2023/03/21 00:54:05;;;;;;;;;;;18.70;47.50;;;;;;5114592;28;19924;-68
2023/03/21 00:56:30;;;;;;;;;;;18.70;47.60;;;;;;5114796;28;19927;-69
2023/03/21 00:58:56;;;;;;;;;;;18.60;47.40;;;;;;5114610;28;19920;-68
2023/03/21 01:01:21;;;;;;;;;;;18.70;47.60;;;;;;5096518;28;19926;-68
2023/03/21 01:03:49;;;;;;;;;;;18.70;47.60;;;;;;5096671;28;20014;-67
2023/03/21 01:06:18;;;;;;;;;;;18.60;47.60;;;;;;5096438;28;19920;-68
2023/03/21 01:08:44;;;;;;;;;;;18.60;47.60;;;;;;5114608;28;19920;-68
2023/03/21 01:11:11;;;;;;;;;;;18.60;47.60;;;;;;5096198;28;19919;-68
2023/03/21 01:13:37;;;;;;;;;;;18.60;47.70;;;;;;5114463;28;19965;-68
2023/03/21 01:16:04;;;;;;;;;;;18.60;47.70;;;;;;5096136;28;19923;-67
2023/03/21 01:18:30;;;;;;;;;;;18.60;47.80;;;;;;5114758;28;20404;-69
2023/03/21 01:20:56;;;;;;;;;;;18.60;47.80;;;;;;5096250;28;20393;-68
2023/03/21 01:23:22;;;;;;;;;;;18.60;47.80;;;;;;5114340;28;19927;-68
2023/03/21 01:25:49;;;;;;;;;;;18.60;47.90;;;;;;5114732;28;19920;-68
2023/03/21 01:28:15;;;;;;;;;;;18.60;47.80;;;;;;5095913;28;19920;-68
2023/03/21 01:30:48;;;;;;;;;;;18.60;47.90;;;;;;5096107;28;19943;-68
2023/03/21 01:33:15;;;;;;;;;;;18.50;48.00;;;;;;5114036;28;19927;-68
2023/03/21 01:35:40;;;;;;;;;;;18.50;47.90;;;;;;5095771;28;19931;-69
2023/03/21 01:38:06;;;;;;;;;;;18.50;47.90;;;;;;5095383;28;19919;-68
2023/03/21 01:40:31;;;;;;;;;;;18.50;47.90;;;;;;5095544;28;19923;-70
2023/03/21 01:42:57;;;;;;;;;;;18.50;47.70;;;;;;5095837;28;19968;-67
2023/03/21 01:45:42;;;;;;;;;;;18.60;48.30;;;;;;5095557;28;19920;-67
2023/03/21 01:48:08;;;;;;;;;;;18.70;48.10;;;;;;5095377;28;19965;-68
2023/03/21 01:50:35;;;;;;;;;;;18.90;47.90;;;;;;5095351;28;19923;-67
2023/03/21 01:53:02;;;;;;;;;;;19.10;47.50;;;;;;5095775;28;19920;-68
2023/03/21 01:55:28;;;;;;;;;;;19.40;47.10;;;;;;5095049;28;20359;-67
2023/03/21 01:57:55;;;;;;;;;;;19.70;46.60;;;;;;5095265;28;20018;-68
2023/03/21 02:00:23;;;;;;;;;;;20.10;46.00;;;;;;5129397;27;19920;-69
2023/03/21 02:02:53;;;;;;;;;;;20.50;45.30;;;;;;5095546;28;19928;-69
2023/03/21 02:05:23;;;;;;;;;;;20.90;44.60;;;;;;5113566;28;19924;-69
2023/03/21 02:07:51;;;;;;;;;;;21.30;43.80;;;;;;5113336;28;19965;-68
2023/03/21 02:10:17;;;;;;;;;;;21.60;43.00;;;;;;5095197;28;19947;-69
2023/03/21 02:12:42;;;;;;;;;;;21.90;42.40;;;;;;5129607;27;19951;-68
2023/03/21 02:15:08;;;;;;;;;;;22.20;42.00;;;;;;5095162;28;19935;-68
2023/03/21 02:17:37;;;;;;;;;;;22.50;41.60;;;;;;5095227;28;20424;-68
2023/03/21 02:20:25;;;;;;;;;;;22.60;41.10;;;;;;5129387;27;19920;-68
2023/03/21 02:25:55;;;;;;;;;;;22.80;40.80;;;;;;5110628;27;19912;-69
2023/03/21 02:28:31;;;;;;;;;;;22.70;40.60;;;;;;5091711;28;20018;-69
2023/03/21 02:33:43;;;;;;;;;;;22.60;40.80;;;;;;5110159;27;19918;-69
2023/03/21 02:36:25;;;;;;;;;;;22.60;41.00;;;;;;5109279;28;20304;-69
2023/03/21 02:41:52;;;;;;;;;;;22.30;41.40;;;;;;5110729;27;20296;-69
2023/03/21 02:49:55;;;;;;;;;;;21.80;42.10;;;;;;5089830;28;19913;-69
2023/03/21 02:52:23;;;;;;;;;;;21.70;42.30;;;;;;5088489;28;19973;-69
2023/03/21 02:54:50;;;;;;;;;;;21.60;42.50;;;;;;5088615;28;19921;-68
2023/03/21 02:57:17;;;;;;;;;;;21.50;42.70;;;;;;5088484;28;19924;-69
2023/03/21 02:59:43;;;;;;;;;;;21.60;42.80;;;;;;5088689;28;19965;-69
2023/03/21 03:02:08;;;;;;;;;;;21.50;42.80;;;;;;5089864;28;20299;-68
2023/03/21 03:04:34;;;;;;;;;;;21.50;42.70;;;;;;5089565;28;19921;-68
2023/03/21 03:07:20;;;;;;;;;;;21.60;42.60;;;;;;5088302;28;20367;-68
2023/03/21 03:12:53;;;;;;;;;;;21.60;42.40;;;;;;5089988;28;19912;-68
2023/03/21 03:15:28;;;;;;;;;;;21.70;42.30;;;;;;5088346;28;19943;-68
2023/03/21 03:18:08;;;;;;;;;;;21.70;42.20;;;;;;5088923;28;20086;-69
2023/03/21 03:20:39;;;;;;;;;;;21.80;42.20;;;;;;5088485;28;19947;-69
2023/03/21 03:23:25;;;;;;;;;;;21.70;42.00;;;;;;5088764;28;19932;-68
2023/03/21 03:25:53;;;;;;;;;;;21.80;42.10;;;;;;5105424;28;20362;-69
2023/03/21 03:28:21;;;;;;;;;;;21.80;42.10;;;;;;5089894;28;20326;-69
2023/03/21 03:30:48;;;;;;;;;;;21.80;42.10;;;;;;5088176;28;19978;-68
2023/03/21 03:33:15;;;;;;;;;;;21.80;42.10;;;;;;5088271;28;19924;-68
2023/03/21 03:35:42;;;;;;;;;;;21.80;42.10;;;;;;5088417;28;19985;-68
2023/03/21 03:38:09;;;;;;;;;;;21.80;42.10;;;;;;5088476;28;19920;-69
2023/03/21 03:40:42;;;;;;;;;;;21.80;42.10;;;;;;5087967;28;19924;-69
2023/03/21 03:43:10;;;;;;;;;;;21.80;42.10;;;;;;5089298;28;20007;-68
2023/03/21 03:45:41;;;;;;;;;;;21.80;42.10;;;;;;5089200;28;20011;-69
2023/03/21 03:48:13;;;;;;;;;;;21.70;42.00;;;;;;5089564;28;19920;-69
2023/03/21 03:53:22;;;;;;;;;;;21.80;42.10;;;;;;5110295;27;20409;-68
2023/03/21 03:55:48;;;;;;;;;;;21.80;42.90;;;;;;5108837;28;19973;-68
2023/03/21 03:58:17;;;;;;;;;;;21.80;42.20;;;;;;5109142;28;20015;-69
2023/03/21 04:00:43;;;;;;;;;;;21.80;42.10;;;;;;5108836;28;19920;-69
2023/03/21 04:03:09;;;;;;;;;;;21.80;42.10;;;;;;5109166;28;19920;-69
2023/03/21 04:05:35;;;;;;;;;;;21.80;42.10;;;;;;5108751;28;19924;-69
2023/03/21 04:08:01;;;;;;;;;;;21.80;42.10;;;;;;5109183;28;19969;-69
2023/03/21 04:10:26;;;;;;;;;;;21.70;42.10;;;;;;5108940;28;19974;-69
2023/03/21 04:12:52;;;;;;;;;;;21.70;42.20;;;;;;5108597;28;20413;-71
2023/03/21 04:15:19;;;;;;;;;;;21.70;42.30;;;;;;5108825;28;19927;-68
2023/03/21 04:17:45;;;;;;;;;;;21.60;42.30;;;;;;5108924;28;19919;-68
2023/03/21 04:20:10;;;;;;;;;;;21.60;42.40;;;;;;5108688;28;19927;-68
2023/03/21 04:22:39;;;;;;;;;;;21.60;42.50;;;;;;5108359;28;19934;-69
2023/03/21 04:25:06;;;;;;;;;;;21.60;42.50;;;;;;5108391;28;20379;-68
2023/03/21 04:27:32;;;;;;;;;;;21.60;42.50;;;;;;5108711;28;19926;-68
2023/03/21 04:29:58;;;;;;;;;;;21.60;42.50;;;;;;5108540;28;19939;-68
2023/03/21 04:32:24;;;;;;;;;;;21.60;42.40;;;;;;5108153;28;19985;-68
2023/03/21 04:34:52;;;;;;;;;;;21.60;42.40;;;;;;5109474;28;20438;-68
2023/03/21 04:37:22;;;;;;;;;;;21.60;42.40;;;;;;5108026;28;19919;-68
2023/03/21 04:39:49;;;;;;;;;;;21.60;42.40;;;;;;5109575;28;20339;-68
2023/03/21 04:42:15;;;;;;;;;;;21.60;42.30;;;;;;5107983;28;19924;-69
2023/03/21 04:44:40;;;;;;;;;;;21.60;42.40;;;;;;5109472;28;20034;-69
2023/03/21 04:47:06;;;;;;;;;;;21.70;42.40;;;;;;5107847;28;20407;-69
2023/03/21 04:49:32;;;;;;;;;;;21.70;42.30;;;;;;5107898;28;19924;-69
2023/03/21 04:51:57;;;;;;;;;;;21.70;42.30;;;;;;5105324;28;19924;-69
2023/03/21 04:54:23;;;;;;;;;;;21.70;42.30;;;;;;5109318;28;19931;-68
2023/03/21 04:56:50;;;;;;;;;;;21.70;42.20;;;;;;5141986;27;20294;-68
2023/03/21 04:59:16;;;;;;;;;;;21.70;43.00;;;;;;5107776;28;20437;-69
2023/03/21 05:01:42;;;;;;;;;;;21.70;42.20;;;;;;5107957;28;19920;-69
2023/03/21 05:04:12;;;;;;;;;;;21.70;42.20;;;;;;5098225;28;19932;-68
2023/03/21 05:06:41;;;;;;;;;;;21.70;42.20;;;;;;5093915;28;19920;-69
2023/03/21 05:09:07;;;;;;;;;;;21.80;42.20;;;;;;5095444;28;20283;-69
2023/03/21 05:11:36;;;;;;;;;;;21.80;42.10;;;;;;5094072;28;19924;-69
2023/03/21 05:14:02;;;;;;;;;;;21.80;42.10;;;;;;5094090;28;19924;-68
2023/03/21 05:16:29;;;;;;;;;;;21.90;42.00;;;;;;5095212;28;19928;-68
2023/03/21 05:19:02;;;;;;;;;;;21.90;41.90;;;;;;5095019;28;20033;-68
2023/03/21 05:21:28;;;;;;;;;;;21.90;41.90;;;;;;5093946;28;19927;-69
2023/03/21 05:23:54;;;;;;;;;;;21.90;41.90;;;;;;5094943;28;19920;-68
2023/03/21 05:26:20;;;;;;;;;;;21.90;41.80;;;;;;5094039;28;19920;-68
2023/03/21 05:28:46;;;;;;;;;;;21.90;42.60;;;;;;5093616;28;19955;-68
2023/03/21 05:31:15;;;;;;;;;;;21.90;41.80;;;;;;5093458;28;20009;-69
2023/03/21 05:33:41;;;;;;;;;;;21.90;41.80;;;;;;5095204;28;19961;-69
2023/03/21 05:36:07;;;;;;;;;;;21.90;41.80;;;;;;5093698;28;20342;-68
2023/03/21 05:38:32;;;;;;;;;;;21.90;41.80;;;;;;5095188;28;20263;-68
2023/03/21 05:41:01;;;;;;;;;;;21.90;41.80;;;;;;5094790;28;19967;-68
2023/03/21 05:43:26;;;;;;;;;;;21.90;41.80;;;;;;5093457;28;19920;-68
2023/03/21 05:45:52;;;;;;;;;;;21.90;41.80;;;;;;5093173;28;19927;-69
2023/03/21 05:48:18;;;;;;;;;;;21.90;41.90;;;;;;5127678;27;19927;-69
2023/03/21 05:50:43;;;;;;;;;;;21.90;41.90;;;;;;5093482;28;20448;-69
2023/03/21 05:53:09;;;;;;;;;;;21.90;41.90;;;;;;5092876;28;19931;-69
2023/03/21 05:55:35;;;;;;;;;;;21.90;41.90;;;;;;5094724;28;19945;-68
2023/03/21 05:58:03;;;;;;;;;;;21.80;41.90;;;;;;5093075;28;20264;-69
2023/03/21 06:00:29;;;;;;;;;;;21.90;42.00;;;;;;5092966;28;20020;-68
2023/03/21 06:02:55;;;;;;;;;;;21.80;41.90;;;;;;5094358;28;19985;-68
2023/03/21 06:05:20;;;;;;;;;;;21.80;41.90;;;;;;5094107;28;19927;-68
2023/03/21 06:07:46;;;;;;;;;;;21.80;41.90;;;;;;5094057;28;20015;-69
2023/03/21 06:10:12;;;;;;;;;;;21.80;42.70;;;;;;5094002;28;19919;-69
2023/03/21 06:12:37;;;;;;;;;;;21.80;42.00;;;;;;5092810;28;19972;-69
2023/03/21 06:15:04;;;;;;;;;;;21.80;42.00;;;;;;5092967;28;19965;-68
2023/03/21 06:17:30;;;;;;;;;;;21.80;42.00;;;;;;5093010;28;19968;-68
2023/03/21 06:19:55;;;;;;;;;;;21.80;42.00;;;;;;5093916;28;19974;-68
2023/03/21 06:22:21;;;;;;;;;;;21.80;42.00;;;;;;5093871;28;19924;-68
2023/03/21 06:24:47;;;;;;;;;;;21.80;42.00;;;;;;5092450;28;19963;-68
2023/03/21 06:27:12;;;;;;;;;;;21.80;42.10;;;;;;5092640;28;20287;-68
2023/03/21 06:29:38;;;;;;;;;;;21.80;42.10;;;;;;5093771;28;20014;-68
2023/03/21 06:32:04;;;;;;;;;;;21.80;42.10;;;;;;5093632;28;19946;-66
2023/03/21 06:34:30;;;;;;;;;;;21.80;42.10;;;;;;5090941;28;20299;-67
2023/03/21 06:36:55;;;;;;;;;;;21.80;42.90;;;;;;5090681;28;19927;-64
2023/03/21 06:39:20;;;;;;;;;;;21.60;43.30;;;;;;5090188;28;20382;-66
2023/03/21 06:41:46;;;;;;;;;;;21.50;43.60;;;;;;5090966;28;19926;-66
2023/03/21 06:44:11;;;;;;;;;;;21.40;44.40;;;;;;5090644;28;20401;-66
2023/03/21 06:46:37;;;;;;;;;;;21.30;45.10;;;;;;5089147;28;19927;-66
2023/03/21 06:49:02;;;;;;;;;;;21.20;45.30;;;;;;5087709;28;19920;-66
2023/03/21 06:51:28;;;;;;;;;;;21.20;45.80;;;;;;5088342;28;19931;-66
2023/03/21 06:53:53;;;;;;;;;;;21.20;45.70;;;;;;5109940;28;19919;-66
2023/03/21 06:56:19;;;;;;;;;;;21.20;45.60;;;;;;5109412;28;19920;-66
2023/03/21 06:58:45;;;;;;;;;;;21.20;45.50;;;;;;5091874;28;19920;-67
2023/03/21 07:01:11;;;;;;;;;;;21.30;45.50;;;;;;5084094;28;19924;-66
2023/03/21 07:03:36;;;;;;;;;;;21.40;45.50;;;;;;5088967;28;19994;-66
2023/03/21 07:06:03;;;;;;;;;;;21.40;45.40;;;;;;5109008;28;20785;-66
2023/03/21 07:08:28;;;;;;;;;;;21.40;45.50;;;;;;5089434;28;20287;-66
2023/03/21 07:10:54;;;;;;;;;;;21.40;45.60;;;;;;5087855;28;19927;-67
2023/03/21 07:13:20;;;;;;;;;;;21.50;45.80;;;;;;5107238;28;19935;-66
2023/03/21 07:15:45;;;;;;;;;;;21.50;45.50;;;;;;5085490;28;19924;-65
2023/03/21 07:18:11;;;;;;;;;;;21.60;45.50;;;;;;5088113;28;20387;-66
2023/03/21 07:20:36;;;;;;;;;;;21.50;45.40;;;;;;5089844;28;19923;-67
2023/03/21 07:23:02;;;;;;;;;;;21.50;45.60;;;;;;5089730;28;19920;-67
2023/03/21 07:25:28;;;;;;;;;;;21.70;45.80;;;;;;5108057;28;19928;-74
2023/03/21 07:27:54;;;;;;;;;;;21.90;45.60;;;;;;5086137;28;19923;-65
2023/03/21 07:30:19;;;;;;;;;;;22.10;45.40;;;;;;5094437;28;20371;-67
2023/03/21 07:32:46;;;;;;;;;;;22.20;44.80;;;;;;5070505;28;20369;-65
2023/03/21 07:35:16;;;;;;;;;;;22.30;45.00;;;;;;5061535;28;19933;-68
2023/03/21 07:37:41;;;;;;;;;;;22.30;44.90;;;;;;5072263;28;19931;-67
2023/03/21 07:40:09;;;;;;;;;;;22.40;45.40;;;;;;5077939;28;19916;-66
2023/03/21 07:42:35;;;;;;;;;;;22.40;44.80;;;;;;5082269;28;19966;-67
2023/03/21 07:45:01;;;;;;;;;;;22.30;45.40;;;;;;5087544;28;19923;-71
2023/03/21 07:47:28;;;;;;;;;;;22.20;46.00;;;;;;5052822;28;19963;-70
2023/03/21 07:49:53;;;;;;;;;;;22.00;46.40;;;;;;5067340;28;20007;-69
2023/03/21 07:52:19;;;;;;;;;;;22.00;47.00;;;;;;5084009;28;19981;-66
2023/03/21 07:54:45;;;;;;;;;;;21.90;47.60;;;;;;5088904;28;19924;-67
2023/03/21 07:57:10;;;;;;;;;;;21.90;48.00;;;;;;5088785;28;20386;-75
2023/03/21 07:59:36;;;;;;;;;;;21.80;48.40;;;;;;5071684;28;20485;-68
2023/03/21 08:02:01;;;;;;;;;;;21.80;48.80;;;;;;5089636;28;19923;-73
2023/03/21 08:04:27;;;;;;;;;;;21.70;49.00;;;;;;5109958;28;20398;-69
2023/03/21 08:06:52;;;;;;;;;;;21.70;49.20;;;;;;5090518;28;19964;-68
2023/03/21 08:09:18;;;;;;;;;;;21.70;49.30;;;;;;5072495;28;19924;-69
2023/03/21 08:11:44;;;;;;;;;;;21.60;49.50;;;;;;5070895;28;19924;-68
2023/03/21 08:14:09;;;;;;;;;;;21.60;49.80;;;;;;5109192;28;19923;-68
2023/03/21 08:16:35;;;;;;;;;;;21.50;50.10;;;;;;5073536;28;19920;-67
2023/03/21 08:19:00;;;;;;;;;;;21.50;50.50;;;;;;5090576;28;19924;-69
2023/03/21 08:21:26;;;;;;;;;;;21.50;50.70;;;;;;5089276;28;19931;-72
2023/03/21 08:23:52;;;;;;;;;;;21.50;50.90;;;;;;5090325;28;19935;-72
2023/03/21 08:26:18;;;;;;;;;;;21.40;51.00;;;;;;5072821;28;19947;-68
2023/03/21 08:28:46;;;;;;;;;;;21.40;50.50;;;;;;5078801;28;20214;-70
2023/03/21 08:31:12;;;;;;;;;;;21.50;51.10;;;;;;5091887;28;19924;-69
2023/03/21 08:33:38;;;;;;;;;;;21.50;50.30;;;;;;5073100;28;20084;-68
2023/03/21 08:36:04;;;;;;;;;;;21.60;50.50;;;;;;5074402;28;19920;-69
2023/03/21 08:38:32;;;;;;;;;;;21.70;50.40;;;;;;5071441;28;19931;-69
2023/03/21 08:40:59;;;;;;;;;;;21.70;50.70;;;;;;5080622;28;19939;-69
2023/03/21 08:43:25;;;;;;;;;;;21.80;50.70;;;;;;5076990;28;20342;-69
2023/03/21 08:45:50;;;;;;;;;;;21.90;50.20;;;;;;5080870;28;19924;-70
2023/03/21 08:48:16;;;;;;;;;;;22.00;50.40;;;;;;5094657;28;20350;-68
2023/03/21 08:50:42;;;;;;;;;;;22.00;49.30;;;;;;5108239;27;19924;-73
2023/03/21 08:53:07;;;;;;;;;;;21.90;49.10;;;;;;5106843;27;19950;-69
2023/03/21 08:55:33;;;;;;;;;;;21.80;49.30;;;;;;5076911;28;20315;-68
2023/03/21 08:57:59;;;;;;;;;;;21.80;49.10;;;;;;5074731;28;20342;-65
2023/03/21 09:00:26;;;;;;;;;;;21.80;49.30;;;;;;5079241;28;19920;-68
2023/03/21 09:02:53;;;;;;;;;;;21.80;49.20;;;;;;5097598;28;19971;-69
2023/03/21 09:05:19;;;;;;;;;;;21.90;49.30;;;;;;5097887;28;20292;-67
2023/03/21 09:07:46;;;;;;;;;;;21.90;49.20;;;;;;5098924;28;20378;-66
2023/03/21 09:10:15;;;;;;;;;;;21.90;48.70;;;;;;5096753;28;19924;-70
2023/03/21 09:12:41;;;;;;;;;;;21.90;48.70;;;;;;5080836;28;19954;-65
2023/03/21 09:15:08;;;;;;;;;;;22.00;48.80;;;;;;5076312;28;20159;-67
2023/03/21 09:17:33;;;;;;;;;;;22.00;48.50;;;;;;5095942;27;20022;-63
2023/03/21 09:19:59;;;;;;;;;;;21.90;48.30;;;;;;5075571;28;20035;-69
2023/03/21 09:22:26;;;;;;;;;;;21.90;48.70;;;;;;5091390;28;19952;-69
2023/03/21 09:24:52;;;;;;;;;;;21.90;48.80;;;;;;5076484;28;19956;-68
2023/03/21 09:27:21;;;;;;;;;;;21.90;48.80;;;;;;5095849;28;19924;-68
2023/03/21 09:29:50;;;;;;;;;;;21.90;49.00;;;;;;5074804;28;20710;-67
2023/03/21 09:32:17;;;;;;;;;;;21.90;49.00;;;;;;5092734;28;19935;-67
2023/03/21 09:34:43;;;;;;;;;;;22.00;49.00;;;;;;5106621;27;20397;-67
2023/03/21 09:37:11;;;;;;;;;;;22.00;48.80;;;;;;5075567;28;20044;-67
2023/03/21 09:39:39;;;;;;;;;;;22.00;48.90;;;;;;5077111;28;19935;-68
2023/03/21 09:42:12;;;;;;;;;;;22.00;48.50;;;;;;5079191;28;19928;-67
2023/03/21 09:44:43;;;;;;;;;;;21.90;48.40;;;;;;5081386;28;19931;-67
2023/03/21 09:47:19;;;;;;;;;;;21.80;48.30;;;;;;5096045;28;20343;-68
2023/03/21 09:49:48;;;;;;;;;;;21.60;48.70;;;;;;5091605;28;19930;-66
2023/03/21 09:52:18;;;;;;;;;;;21.60;49.50;;;;;;5071801;28;19939;-65
2023/03/21 09:54:44;;;;;;;;;;;21.60;49.20;;;;;;5082444;28;19930;-65
2023/03/21 09:57:18;;;;;;;;;;;21.50;49.20;;;;;;5105768;27;20019;-68
2023/03/21 09:59:45;;;;;;;;;;;21.70;49.70;;;;;;5077475;28;19964;-65
2023/03/21 10:02:32;;;;;;;;;;;21.80;49.50;;;;;;5094939;28;20941;-64
2023/03/21 10:04:59;;;;;;;;;;;21.90;49.50;;;;;;5081399;28;19924;-67
2023/03/21 10:07:27;;;;;;;;;;;22.00;49.50;;;;;;5075931;28;19969;-66
2023/03/21 10:09:53;;;;;;;;;;;22.10;49.50;;;;;;5090690;28;20400;-65
2023/03/21 10:12:20;;;;;;;;;;;22.10;49.30;;;;;;5074369;28;20384;-69
2023/03/21 10:14:48;;;;;;;;;;;22.20;49.50;;;;;;5074060;28;19941;-70
2023/03/21 10:20:00;;;;;;;;;;;22.10;49.60;;;;;;5075654;27;20486;-67
2023/03/21 10:22:25;;;;;;;;;;;22.10;49.50;;;;;;5089386;28;20371;-67
2023/03/21 10:24:51;;;;;;;;;;;22.10;49.30;;;;;;5050957;28;20033;-67
2023/03/21 10:27:16;;;;;;;;;;;22.10;49.90;;;;;;5053675;28;19929;-66
2023/03/21 10:29:43;;;;;;;;;;;22.00;49.80;;;;;;5088927;28;19927;-70
2023/03/21 10:32:10;;;;;;;;;;;22.00;49.90;;;;;;5051921;28;19921;-69
2023/03/21 10:34:41;;;;;;;;;;;21.90;50.00;;;;;;5050279;28;20605;-68
2023/03/21 10:37:06;;;;;;;;;;;21.80;49.90;;;;;;5055694;28;19928;-69
2023/03/21 10:39:36;;;;;;;;;;;21.70;50.00;;;;;;5051252;28;20357;-68
2023/03/21 10:42:02;;;;;;;;;;;21.60;50.20;;;;;;5051335;28;20051;-69
2023/03/21 10:44:29;;;;;;;;;;;21.60;50.50;;;;;;5049086;28;21138;-68
2023/03/21 10:46:57;;;;;;;;;;;21.50;50.50;;;;;;5062277;28;20483;-70
2023/03/21 10:49:24;;;;;;;;;;;21.50;50.50;;;;;;5054621;28;19921;-70
2023/03/21 10:51:50;;;;;;;;;;;21.50;50.50;;;;;;5052698;28;19982;-67
2023/03/21 10:54:18;;;;;;;;;;;21.60;50.30;;;;;;5049850;28;19950;-71
2023/03/21 10:56:47;;;;;;;;;;;21.60;50.20;;;;;;5086363;28;19940;-69
2023/03/21 10:59:17;;;;;;;;;;;21.70;50.10;;;;;;5055145;28;19941;-71
2023/03/21 11:01:45;;;;;;;;;;;21.80;50.10;;;;;;5048091;28;19994;-74
2023/03/21 11:04:20;;;;;;;;;;;21.80;50.00;;;;;;5048524;28;20132;-68
2023/03/21 11:06:50;;;;;;;;;;;21.90;50.80;;;;;;5066434;28;19928;-70
2023/03/21 11:09:19;;;;;;;;;;;21.90;50.20;;;;;;5050879;28;20019;-72
2023/03/21 11:11:53;;;;;;;;;;;21.90;49.80;;;;;;5083712;28;20580;-71
2023/03/21 11:14:38;;;;;;;;;;;21.90;50.00;;;;;;5047315;28;20384;-71
2023/03/21 11:17:18;;;;;;;;;;;21.90;50.00;;;;;;5051282;28;20071;-74
2023/03/21 11:19:48;;;;;;;;;;;21.90;49.80;;;;;;5052200;28;20483;-73
2023/03/21 11:22:14;;;;;;;;;;;21.90;49.70;;;;;;5051538;28;19924;-69
2023/03/21 11:24:40;;;;;;;;;;;21.80;49.70;;;;;;5052880;28;19924;-69
2023/03/21 11:27:07;;;;;;;;;;;21.90;49.90;;;;;;5050247;28;19924;-68
2023/03/21 11:29:34;;;;;;;;;;;21.90;50.00;;;;;;5046523;28;19964;-77
2023/03/21 11:32:01;;;;;;;;;;;21.80;49.60;;;;;;5035397;28;20728;-79
2023/03/21 11:34:30;;;;;;;;;;;21.90;49.70;;;;;;5035043;28;20474;-67
2023/03/21 11:36:57;;;;;;;;;;;21.90;50.10;;;;;;5066696;28;19925;-67
2023/03/21 11:39:29;;;;;;;;;;;21.90;49.90;;;;;;5034967;28;19982;-67
2023/03/21 11:41:55;;;;;;;;;;;21.90;49.60;;;;;;5031809;28;19924;-68
2023/03/21 11:44:24;;;;;;;;;;;21.90;49.50;;;;;;5068929;28;19950;-71
2023/03/21 11:46:50;;;;;;;;;;;21.90;49.60;;;;;;5036379;28;20020;-72
2023/03/21 11:49:15;;;;;;;;;;;21.90;50.10;;;;;;5038170;28;20396;-69
2023/03/21 11:51:52;;;;;;;;;;;21.90;49.60;;;;;;5035136;28;19924;-69
2023/03/21 11:54:26;;;;;;;;;;;21.80;49.40;;;;;;5037135;28;19931;-66
2023/03/21 11:56:53;;;;;;;;;;;21.70;49.20;;;;;;5068023;28;20285;-67
2023/03/21 12:07:27;;;;;;;;;;;21.40;49.10;;;;;;5073504;27;19921;-68
2023/03/21 12:09:56;;;;;;;;;;;21.40;49.50;;;;;;5091821;28;19981;-67
2023/03/21 12:12:29;;;;;;;;;;;21.40;50.20;;;;;;5059429;28;19920;-69
2023/03/21 12:18:04;;;;;;;;;;;21.60;49.50;;;;;;5071891;27;20591;-75
2023/03/21 12:28:58;;;;;;;;;;;22.00;49.00;;;;;;5085810;27;19916;-72
2023/03/21 12:31:32;;;;;;;;;;;22.00;48.90;;;;;;5093393;28;19932;-71
2023/03/21 12:36:58;;;;;;;;;;;22.00;49.00;;;;;;5059028;28;20359;-69
2023/03/21 12:44:57;;;;;;;;;;;21.80;49.10;;;;;;5114183;27;19922;-69
2023/03/21 12:47:25;;;;;;;;;;;21.80;49.30;;;;;;5088210;28;19920;-69
2023/03/21 12:49:53;;;;;;;;;;;21.70;49.40;;;;;;5095033;28;20018;-68
2023/03/21 12:52:24;;;;;;;;;;;21.60;49.60;;;;;;5088857;28;20020;-67
2023/03/21 12:55:10;;;;;;;;;;;21.50;49.50;;;;;;5092161;28;19924;-66
2023/03/21 12:57:39;;;;;;;;;;;21.50;49.40;;;;;;5090350;28;19924;-67
2023/03/21 13:02:49;;;;;;;;;;;21.60;49.30;;;;;;5088009;27;19920;-68
2023/03/21 13:05:17;;;;;;;;;;;21.60;49.30;;;;;;5065175;28;20011;-66
2023/03/21 13:07:46;;;;;;;;;;;21.70;49.40;;;;;;5054653;28;20009;-66
2023/03/21 13:10:13;;;;;;;;;;;21.70;50.20;;;;;;5052127;28;19924;-67
2023/03/21 13:12:42;;;;;;;;;;;21.70;49.20;;;;;;5055618;28;19924;-68
2023/03/21 13:15:28;;;;;;;;;;;21.70;49.30;;;;;;5055412;28;19928;-66
2023/03/21 13:18:03;;;;;;;;;;;21.70;49.50;;;;;;5071264;28;19974;-66
2023/03/21 13:23:12;;;;;;;;;;;21.60;49.20;;;;;;5081945;28;20298;-68
2023/03/21 13:25:46;;;;;;;;;;;21.50;49.20;;;;;;5053632;28;19931;-68
2023/03/21 13:28:17;;;;;;;;;;;21.40;49.20;;;;;;5054015;28;19920;-67
2023/03/21 13:30:42;;;;;;;;;;;21.40;49.60;;;;;;5055113;28;19935;-67
2023/03/21 13:33:12;;;;;;;;;;;21.40;49.40;;;;;;5053071;28;19921;-69
2023/03/21 13:35:40;;;;;;;;;;;21.40;49.40;;;;;;5077850;28;19920;-67
2023/03/21 13:38:11;;;;;;;;;;;21.50;49.40;;;;;;5082835;28;20395;-68
2023/03/21 13:40:39;;;;;;;;;;;21.50;49.30;;;;;;5052135;28;19924;-67
2023/03/21 13:43:25;;;;;;;;;;;21.60;49.10;;;;;;5051052;28;19952;-66
2023/03/21 13:45:53;;;;;;;;;;;21.60;49.30;;;;;;5053449;28;19928;-67
2023/03/21 13:48:28;;;;;;;;;;;21.60;49.30;;;;;;5083832;28;19947;-67
2023/03/21 13:51:01;;;;;;;;;;;21.60;49.30;;;;;;5085851;28;20024;-69
2023/03/21 13:53:31;;;;;;;;;;;21.60;49.90;;;;;;5052619;28;19935;-70
2023/03/21 13:55:58;;;;;;;;;;;21.70;49.10;;;;;;5083774;28;19925;-68
2023/03/21 13:58:44;;;;;;;;;;;21.70;49.30;;;;;;5048051;28;19929;-68
2023/03/21 14:01:20;;;;;;;;;;;21.70;49.20;;;;;;5047526;28;19979;-69
2023/03/21 14:03:46;;;;;;;;;;;21.70;49.20;;;;;;5050241;28;19924;-68
2023/03/21 14:06:13;;;;;;;;;;;21.70;49.30;;;;;;5082542;28;20702;-67
2023/03/21 14:08:40;;;;;;;;;;;21.70;49.40;;;;;;5051092;28;19948;-67
2023/03/21 14:11:10;;;;;;;;;;;21.70;49.50;;;;;;5055673;28;20003;-67
2023/03/21 14:13:39;;;;;;;;;;;21.80;49.40;;;;;;5086985;28;19939;-67
2023/03/21 14:16:07;;;;;;;;;;;21.80;49.40;;;;;;5086781;28;19928;-68
2023/03/21 14:18:39;;;;;;;;;;;21.80;49.30;;;;;;5087605;28;19960;-68
2023/03/21 14:21:05;;;;;;;;;;;21.80;49.20;;;;;;5055045;28;19937;-67
2023/03/21 14:23:30;;;;;;;;;;;21.80;49.10;;;;;;5088799;28;19946;-69
2023/03/21 14:25:56;;;;;;;;;;;21.80;48.90;;;;;;5051644;28;19931;-69
2023/03/21 14:28:24;;;;;;;;;;;21.70;48.80;;;;;;5070620;28;19999;-70
2023/03/21 14:30:52;;;;;;;;;;;21.70;49.10;;;;;;5078294;28;19947;-71
2023/03/21 14:33:24;;;;;;;;;;;21.70;49.10;;;;;;5071517;28;19920;-69
2023/03/21 14:35:50;;;;;;;;;;;21.80;49.30;;;;;;5066763;28;19920;-66
2023/03/21 14:38:20;;;;;;;;;;;21.80;49.30;;;;;;5068880;28;20566;-66
2023/03/21 14:40:47;;;;;;;;;;;21.80;49.00;;;;;;5051783;28;19955;-66
2023/03/21 14:43:12;;;;;;;;;;;21.70;48.60;;;;;;5068661;28;19924;-67
2023/03/21 14:45:38;;;;;;;;;;;21.70;48.60;;;;;;5068560;28;19965;-66
2023/03/21 14:50:46;;;;;;;;;;;21.60;48.90;;;;;;5093903;27;19927;-69
2023/03/21 14:53:18;;;;;;;;;;;21.60;49.00;;;;;;5080283;28;19920;-68
2023/03/21 14:55:46;;;;;;;;;;;21.60;49.00;;;;;;5082014;28;19928;-68
2023/03/21 14:58:13;;;;;;;;;;;21.60;49.00;;;;;;5079711;28;19920;-70
2023/03/21 15:00:41;;;;;;;;;;;21.60;49.00;;;;;;5081942;28;19928;-69
2023/03/21 15:03:07;;;;;;;;;;;21.60;48.90;;;;;;5079698;28;19932;-69
2023/03/21 15:05:35;;;;;;;;;;;21.60;48.90;;;;;;5081206;28;19920;-70
2023/03/21 15:08:07;;;;;;;;;;;21.70;48.90;;;;;;5083194;28;19944;-69
2023/03/21 15:10:32;;;;;;;;;;;21.60;49.00;;;;;;5076627;28;19924;-70
2023/03/21 15:13:00;;;;;;;;;;;21.70;49.20;;;;;;5077752;28;19927;-69
2023/03/21 15:15:26;;;;;;;;;;;21.60;49.00;;;;;;5084662;28;19920;-70
2023/03/21 15:17:53;;;;;;;;;;;21.60;49.10;;;;;;5076701;28;19920;-69